sensor_id;sensor_type;location;lat;lon;timestamp;temperature;humidity
3134;DHT22;1577;49.912;10.924;2023-06-26T00:00:24;18.80;99.90
3134;DHT22;1577;49.912;10.924;2023-06-26T00:02:50;18.80;99.90
3134;DHT22;1577;49.912;10.924;2023-06-26T00:05:15;18.70;99.90
3134;DHT22;1577;49.912;10.924;2023-06-26T00:07:41;18.60;99.90
3134;DHT22;1577;49.912;10.924;2023-06-26T00:10:07;18.50;99.90
3134;DHT22;1577;49.912;10.924;2023-06-26T00:12:33;18.40;99.90
3134;DHT22;1577;49.912;10.924;2023-06-26T00:14:58;18.30;99.90
3134;DHT22;1577;49.912;10.924;2023-06-26T00:17:24;18.20;99.90
3134;DHT22;1577;49.912;10.924;2023-06-26T00:19:50;18.10;99.90
3134;DHT22;1577;49.912;10.924;2023-06-26T00:22:15;18.20;99.90
3134;DHT22;1577;49.912;10.924;2023-06-26T00:24:41;18.20;99.90
3134;DHT22;1577;49.912;10.924;2023-06-26T00:27:07;18.20;99.90
3134;DHT22;1577;49.912;10.924;2023-06-26T00:29:32;18.10;99.90
3134;DHT22;1577;49.912;10.924;2023-06-26T00:31:58;18.10;99.90
3134;DHT22;1577;49.912;10.924;2023-06-26T00:34:24;18.00;99.90
3134;DHT22;1577;49.912;10.924;2023-06-26T00:36:49;18.00;99.90
3134;DHT22;1577;49.912;10.924;2023-06-26T00:39:15;17.90;99.90
3134;DHT22;1577;49.912;10.924;2023-06-26T00:41:41;17.90;99.90
3134;DHT22;1577;49.912;10.924;2023-06-26T00:44:07;17.90;99.90
3134;DHT22;1577;49.912;10.924;2023-06-26T00:46:33;17.90;99.90
3134;DHT22;1577;49.912;10.924;2023-06-26T00:49:00;17.90;99.90
3134;DHT22;1577;49.912;10.924;2023-06-26T00:51:28;17.90;99.90
3134;DHT22;1577;49.912;10.924;2023-06-26T00:53:54;17.90;99.90
3134;DHT22;1577;49.912;10.924;2023-06-26T00:56:20;17.90;99.90
3134;DHT22;1577;49.912;10.924;2023-06-26T00:58:46;18.00;99.90
3134;DHT22;1577;49.912;10.924;2023-06-26T01:01:12;18.10;99.90
3134;DHT22;1577;49.912;10.924;2023-06-26T01:03:43;18.10;99.90
3134;DHT22;1577;49.912;10.924;2023-06-26T01:06:11;18.00;99.90
3134;DHT22;1577;49.912;10.924;2023-06-26T01:08:39;18.00;99.90
3134;DHT22;1577;49.912;10.924;2023-06-26T01:11:06;18.10;99.90
3134;DHT22;1577;49.912;10.924;2023-06-26T01:13:31;18.10;99.90
3134;DHT22;1577;49.912;10.924;2023-06-26T01:15:59;18.10;99.90
3134;DHT22;1577;49.912;10.924;2023-06-26T01:18:26;18.10;99.90
3134;DHT22;1577;49.912;10.924;2023-06-26T01:20:52;18.00;99.90
3134;DHT22;1577;49.912;10.924;2023-06-26T01:23:30;17.90;99.90
3134;DHT22;1577;49.912;10.924;2023-06-26T01:28:33;17.70;99.90
3134;DHT22;1577;49.912;10.924;2023-06-26T01:30:59;17.60;99.90
3134;DHT22;1577;49.912;10.924;2023-06-26T01:33:25;17.60;99.90
3134;DHT22;1577;49.912;10.924;2023-06-26T01:35:51;17.50;99.90
3134;DHT22;1577;49.912;10.924;2023-06-26T01:38:21;17.40;99.90
3134;DHT22;1577;49.912;10.924;2023-06-26T01:40:51;17.20;99.90
3134;DHT22;1577;49.912;10.924;2023-06-26T01:45:59;17.10;99.90
3134;DHT22;1577;49.912;10.924;2023-06-26T01:48:32;17.20;99.90
3134;DHT22;1577;49.912;10.924;2023-06-26T01:50:59;17.20;99.90
3134;DHT22;1577;49.912;10.924;2023-06-26T01:53:25;17.10;99.90
3134;DHT22;1577;49.912;10.924;2023-06-26T01:56:01;17.10;99.90
3134;DHT22;1577;49.912;10.924;2023-06-26T01:58:32;17.20;99.90
3134;DHT22;1577;49.912;10.924;2023-06-26T02:00:59;17.10;99.90
3134;DHT22;1577;49.912;10.924;2023-06-26T02:03:24;17.20;99.90
3134;DHT22;1577;49.912;10.924;2023-06-26T02:05:50;17.30;99.90
3134;DHT22;1577;49.912;10.924;2023-06-26T02:08:16;17.10;99.90
3134;DHT22;1577;49.912;10.924;2023-06-26T02:10:42;17.00;99.90
3134;DHT22;1577;49.912;10.924;2023-06-26T02:13:08;17.00;99.90
3134;DHT22;1577;49.912;10.924;2023-06-26T02:15:33;17.00;99.90
3134;DHT22;1577;49.912;10.924;2023-06-26T02:17:59;16.90;99.90
3134;DHT22;1577;49.912;10.924;2023-06-26T02:20:24;16.90;99.90
3134;DHT22;1577;49.912;10.924;2023-06-26T02:22:50;17.00;99.90
3134;DHT22;1577;49.912;10.924;2023-06-26T02:25:17;17.00;99.90
3134;DHT22;1577;49.912;10.924;2023-06-26T02:27:42;17.10;99.90
3134;DHT22;1577;49.912;10.924;2023-06-26T02:30:09;17.10;99.90
3134;DHT22;1577;49.912;10.924;2023-06-26T02:32:34;17.00;99.90
3134;DHT22;1577;49.912;10.924;2023-06-26T02:35:00;17.00;99.90
3134;DHT22;1577;49.912;10.924;2023-06-26T02:37:26;17.10;99.90
3134;DHT22;1577;49.912;10.924;2023-06-26T02:39:51;17.10;99.90
3134;DHT22;1577;49.912;10.924;2023-06-26T02:42:17;17.00;99.90
3134;DHT22;1577;49.912;10.924;2023-06-26T02:44:43;16.90;99.90
3134;DHT22;1577;49.912;10.924;2023-06-26T02:47:08;16.90;99.90
3134;DHT22;1577;49.912;10.924;2023-06-26T02:49:34;16.90;99.90
3134;DHT22;1577;49.912;10.924;2023-06-26T02:51:59;16.80;99.90
3134;DHT22;1577;49.912;10.924;2023-06-26T02:54:25;16.60;99.90
3134;DHT22;1577;49.912;10.924;2023-06-26T02:56:50;16.60;99.90
3134;DHT22;1577;49.912;10.924;2023-06-26T02:59:16;16.50;99.90
3134;DHT22;1577;49.912;10.924;2023-06-26T03:01:42;16.50;99.90
3134;DHT22;1577;49.912;10.924;2023-06-26T03:04:07;16.60;99.90
3134;DHT22;1577;49.912;10.924;2023-06-26T03:06:33;16.70;99.90
3134;DHT22;1577;49.912;10.924;2023-06-26T03:08:59;16.70;99.90
3134;DHT22;1577;49.912;10.924;2023-06-26T03:11:24;16.70;99.90
3134;DHT22;1577;49.912;10.924;2023-06-26T03:13:50;16.70;99.90
3134;DHT22;1577;49.912;10.924;2023-06-26T03:16:15;16.70;99.90
3134;DHT22;1577;49.912;10.924;2023-06-26T03:18:41;16.60;99.90
3134;DHT22;1577;49.912;10.924;2023-06-26T03:21:08;16.60;99.90
3134;DHT22;1577;49.912;10.924;2023-06-26T03:23:34;16.60;99.90
3134;DHT22;1577;49.912;10.924;2023-06-26T03:26:00;16.40;99.90
3134;DHT22;1577;49.912;10.924;2023-06-26T03:28:25;16.40;99.90
3134;DHT22;1577;49.912;10.924;2023-06-26T03:30:51;16.40;99.90
3134;DHT22;1577;49.912;10.924;2023-06-26T03:33:16;16.40;99.90
3134;DHT22;1577;49.912;10.924;2023-06-26T03:35:42;16.50;99.90
3134;DHT22;1577;49.912;10.924;2023-06-26T03:38:07;16.40;99.90
3134;DHT22;1577;49.912;10.924;2023-06-26T03:40:33;16.40;99.90
3134;DHT22;1577;49.912;10.924;2023-06-26T03:42:59;16.40;99.90
3134;DHT22;1577;49.912;10.924;2023-06-26T03:45:24;16.50;99.90
3134;DHT22;1577;49.912;10.924;2023-06-26T03:47:50;16.50;99.90
3134;DHT22;1577;49.912;10.924;2023-06-26T03:50:16;16.60;99.90
3134;DHT22;1577;49.912;10.924;2023-06-26T03:52:42;16.60;99.90
3134;DHT22;1577;49.912;10.924;2023-06-26T03:55:08;16.70;99.90
3134;DHT22;1577;49.912;10.924;2023-06-26T03:57:33;16.70;99.90
3134;DHT22;1577;49.912;10.924;2023-06-26T03:59:59;16.80;99.90
3134;DHT22;1577;49.912;10.924;2023-06-26T04:02:25;16.80;99.90
3134;DHT22;1577;49.912;10.924;2023-06-26T04:04:50;16.90;99.90
3134;DHT22;1577;49.912;10.924;2023-06-26T04:07:18;16.90;99.90
3134;DHT22;1577;49.912;10.924;2023-06-26T04:09:44;16.90;99.90
3134;DHT22;1577;49.912;10.924;2023-06-26T04:12:10;16.90;99.90
3134;DHT22;1577;49.912;10.924;2023-06-26T04:14:35;16.90;99.90
3134;DHT22;1577;49.912;10.924;2023-06-26T04:17:01;17.00;99.90
3134;DHT22;1577;49.912;10.924;2023-06-26T04:19:29;17.00;99.90
3134;DHT22;1577;49.912;10.924;2023-06-26T04:21:55;17.10;99.90
3134;DHT22;1577;49.912;10.924;2023-06-26T04:24:21;17.20;99.90
3134;DHT22;1577;49.912;10.924;2023-06-26T04:26:47;17.40;99.90
3134;DHT22;1577;49.912;10.924;2023-06-26T04:29:12;17.60;99.90
3134;DHT22;1577;49.912;10.924;2023-06-26T04:31:38;17.40;99.90
3134;DHT22;1577;49.912;10.924;2023-06-26T04:34:05;17.40;99.90
3134;DHT22;1577;49.912;10.924;2023-06-26T04:36:30;17.40;99.90
3134;DHT22;1577;49.912;10.924;2023-06-26T04:38:57;17.40;99.90
3134;DHT22;1577;49.912;10.924;2023-06-26T04:41:24;17.50;99.90
3134;DHT22;1577;49.912;10.924;2023-06-26T04:43:50;17.50;99.90
3134;DHT22;1577;49.912;10.924;2023-06-26T04:46:16;17.60;99.90
3134;DHT22;1577;49.912;10.924;2023-06-26T04:48:41;17.70;99.90
3134;DHT22;1577;49.912;10.924;2023-06-26T04:51:07;17.60;99.90
3134;DHT22;1577;49.912;10.924;2023-06-26T04:53:33;17.70;99.90
3134;DHT22;1577;49.912;10.924;2023-06-26T04:55:59;17.80;99.90
3134;DHT22;1577;49.912;10.924;2023-06-26T04:58:24;17.80;99.90
3134;DHT22;1577;49.912;10.924;2023-06-26T05:00:50;17.80;99.90
3134;DHT22;1577;49.912;10.924;2023-06-26T05:03:17;18.00;99.90
3134;DHT22;1577;49.912;10.924;2023-06-26T05:05:43;18.20;99.90
3134;DHT22;1577;49.912;10.924;2023-06-26T05:08:15;18.30;99.90
3134;DHT22;1577;49.912;10.924;2023-06-26T05:10:41;18.20;99.90
3134;DHT22;1577;49.912;10.924;2023-06-26T05:13:07;18.20;99.90
3134;DHT22;1577;49.912;10.924;2023-06-26T05:15:33;18.30;99.90
3134;DHT22;1577;49.912;10.924;2023-06-26T05:17:58;18.30;99.90
3134;DHT22;1577;49.912;10.924;2023-06-26T05:20:24;18.30;99.90
3134;DHT22;1577;49.912;10.924;2023-06-26T05:22:50;18.30;99.90
3134;DHT22;1577;49.912;10.924;2023-06-26T05:25:16;18.50;99.90
3134;DHT22;1577;49.912;10.924;2023-06-26T05:27:44;18.50;99.90
3134;DHT22;1577;49.912;10.924;2023-06-26T05:30:10;18.60;99.90
3134;DHT22;1577;49.912;10.924;2023-06-26T05:32:38;18.60;99.90
3134;DHT22;1577;49.912;10.924;2023-06-26T05:35:06;18.70;99.90
3134;DHT22;1577;49.912;10.924;2023-06-26T05:37:33;18.90;99.90
3134;DHT22;1577;49.912;10.924;2023-06-26T05:40:00;18.90;99.90
3134;DHT22;1577;49.912;10.924;2023-06-26T05:42:27;19.00;99.90
3134;DHT22;1577;49.912;10.924;2023-06-26T05:44:53;19.10;99.90
3134;DHT22;1577;49.912;10.924;2023-06-26T05:47:19;19.20;99.90
3134;DHT22;1577;49.912;10.924;2023-06-26T05:49:45;19.30;99.90
3134;DHT22;1577;49.912;10.924;2023-06-26T05:52:11;19.40;99.90
3134;DHT22;1577;49.912;10.924;2023-06-26T05:54:37;19.60;99.90
3134;DHT22;1577;49.912;10.924;2023-06-26T05:57:03;19.70;99.90
3134;DHT22;1577;49.912;10.924;2023-06-26T05:59:31;19.70;99.90
3134;DHT22;1577;49.912;10.924;2023-06-26T06:01:57;19.90;99.90
3134;DHT22;1577;49.912;10.924;2023-06-26T06:04:22;20.20;99.90
3134;DHT22;1577;49.912;10.924;2023-06-26T06:06:48;20.40;99.90
3134;DHT22;1577;49.912;10.924;2023-06-26T06:09:14;20.60;99.90
3134;DHT22;1577;49.912;10.924;2023-06-26T06:11:39;20.70;99.90
3134;DHT22;1577;49.912;10.924;2023-06-26T06:14:05;20.70;99.90
3134;DHT22;1577;49.912;10.924;2023-06-26T06:16:31;20.80;99.90
3134;DHT22;1577;49.912;10.924;2023-06-26T06:18:56;20.80;99.90
3134;DHT22;1577;49.912;10.924;2023-06-26T06:21:22;21.00;99.90
3134;DHT22;1577;49.912;10.924;2023-06-26T06:23:47;21.10;99.90
3134;DHT22;1577;49.912;10.924;2023-06-26T06:26:13;21.30;99.90
3134;DHT22;1577;49.912;10.924;2023-06-26T06:28:39;21.50;99.90
3134;DHT22;1577;49.912;10.924;2023-06-26T06:31:05;21.60;99.90
3134;DHT22;1577;49.912;10.924;2023-06-26T06:33:30;21.70;99.90
3134;DHT22;1577;49.912;10.924;2023-06-26T06:35:56;21.90;99.90
3134;DHT22;1577;49.912;10.924;2023-06-26T06:38:22;22.30;99.90
3134;DHT22;1577;49.912;10.924;2023-06-26T06:40:47;23.50;99.90
3134;DHT22;1577;49.912;10.924;2023-06-26T06:43:13;25.20;99.90
3134;DHT22;1577;49.912;10.924;2023-06-26T06:45:39;26.90;99.90
3134;DHT22;1577;49.912;10.924;2023-06-26T06:48:05;28.50;99.10
3134;DHT22;1577;49.912;10.924;2023-06-26T06:50:31;30.10;94.20
3134;DHT22;1577;49.912;10.924;2023-06-26T06:52:56;31.50;92.40
3134;DHT22;1577;49.912;10.924;2023-06-26T06:55:22;32.20;83.30
3134;DHT22;1577;49.912;10.924;2023-06-26T06:57:49;32.60;79.50
3134;DHT22;1577;49.912;10.924;2023-06-26T07:00:16;32.50;74.60
3134;DHT22;1577;49.912;10.924;2023-06-26T07:02:43;31.90;74.70
3134;DHT22;1577;49.912;10.924;2023-06-26T07:05:10;32.60;75.80
3134;DHT22;1577;49.912;10.924;2023-06-26T07:07:36;32.70;71.10
3134;DHT22;1577;49.912;10.924;2023-06-26T07:10:10;32.80;72.40
3134;DHT22;1577;49.912;10.924;2023-06-26T07:12:37;33.80;70.30
3134;DHT22;1577;49.912;10.924;2023-06-26T07:15:03;35.00;68.70
3134;DHT22;1577;49.912;10.924;2023-06-26T07:17:30;35.60;61.90
3134;DHT22;1577;49.912;10.924;2023-06-26T07:19:56;35.00;61.70
3134;DHT22;1577;49.912;10.924;2023-06-26T07:22:21;36.00;62.50
3134;DHT22;1577;49.912;10.924;2023-06-26T07:24:47;36.40;59.70
3134;DHT22;1577;49.912;10.924;2023-06-26T07:27:16;36.40;59.50
3134;DHT22;1577;49.912;10.924;2023-06-26T07:29:43;36.90;56.90
3134;DHT22;1577;49.912;10.924;2023-06-26T07:32:09;36.80;56.00
3134;DHT22;1577;49.912;10.924;2023-06-26T07:34:34;36.80;55.90
3134;DHT22;1577;49.912;10.924;2023-06-26T07:37:00;37.00;55.80
3134;DHT22;1577;49.912;10.924;2023-06-26T07:39:26;37.70;54.00
3134;DHT22;1577;49.912;10.924;2023-06-26T07:41:51;37.20;54.60
3134;DHT22;1577;49.912;10.924;2023-06-26T07:44:17;37.30;54.40
3134;DHT22;1577;49.912;10.924;2023-06-26T07:46:43;37.70;53.20
3134;DHT22;1577;49.912;10.924;2023-06-26T07:49:10;37.70;51.70
3134;DHT22;1577;49.912;10.924;2023-06-26T07:51:36;37.20;51.40
3134;DHT22;1577;49.912;10.924;2023-06-26T07:54:01;37.30;51.90
3134;DHT22;1577;49.912;10.924;2023-06-26T07:56:27;38.10;52.10
3134;DHT22;1577;49.912;10.924;2023-06-26T07:58:52;38.60;50.60
3134;DHT22;1577;49.912;10.924;2023-06-26T08:01:18;38.30;50.40
3134;DHT22;1577;49.912;10.924;2023-06-26T08:03:43;39.00;50.70
3134;DHT22;1577;49.912;10.924;2023-06-26T08:06:09;39.60;48.50
3134;DHT22;1577;49.912;10.924;2023-06-26T08:08:35;39.60;49.30
3134;DHT22;1577;49.912;10.924;2023-06-26T08:11:01;39.60;48.40
3134;DHT22;1577;49.912;10.924;2023-06-26T08:13:26;40.10;48.00
3134;DHT22;1577;49.912;10.924;2023-06-26T08:15:52;40.70;46.20
3134;DHT22;1577;49.912;10.924;2023-06-26T08:18:18;41.00;45.30
3134;DHT22;1577;49.912;10.924;2023-06-26T08:20:43;41.10;44.60
3134;DHT22;1577;49.912;10.924;2023-06-26T08:23:09;41.10;45.40
3134;DHT22;1577;49.912;10.924;2023-06-26T08:25:35;41.10;44.60
3134;DHT22;1577;49.912;10.924;2023-06-26T08:28:03;41.40;44.20
3134;DHT22;1577;49.912;10.924;2023-06-26T08:30:29;41.40;43.90
3134;DHT22;1577;49.912;10.924;2023-06-26T08:32:58;40.70;44.20
3134;DHT22;1577;49.912;10.924;2023-06-26T08:35:23;41.30;44.20
3134;DHT22;1577;49.912;10.924;2023-06-26T08:37:49;41.30;43.60
3134;DHT22;1577;49.912;10.924;2023-06-26T08:40:17;41.20;43.10
3134;DHT22;1577;49.912;10.924;2023-06-26T08:42:44;41.30;44.00
3134;DHT22;1577;49.912;10.924;2023-06-26T08:45:10;41.00;44.60
3134;DHT22;1577;49.912;10.924;2023-06-26T08:47:37;40.80;42.60
3134;DHT22;1577;49.912;10.924;2023-06-26T08:50:13;40.60;44.60
3134;DHT22;1577;49.912;10.924;2023-06-26T08:55:23;40.70;44.20
3134;DHT22;1577;49.912;10.924;2023-06-26T08:57:51;40.80;43.00
3134;DHT22;1577;49.912;10.924;2023-06-26T09:00:19;40.80;42.50
3134;DHT22;1577;49.912;10.924;2023-06-26T09:02:45;39.90;42.60
3134;DHT22;1577;49.912;10.924;2023-06-26T09:05:11;40.40;43.40
3134;DHT22;1577;49.912;10.924;2023-06-26T09:07:36;40.80;43.60
3134;DHT22;1577;49.912;10.924;2023-06-26T09:10:02;41.20;43.50
3134;DHT22;1577;49.912;10.924;2023-06-26T09:12:28;41.50;43.00
3134;DHT22;1577;49.912;10.924;2023-06-26T09:14:55;41.70;43.20
3134;DHT22;1577;49.912;10.924;2023-06-26T09:17:25;41.70;42.80
3134;DHT22;1577;49.912;10.924;2023-06-26T09:19:51;42.00;42.00
3134;DHT22;1577;49.912;10.924;2023-06-26T09:22:17;42.10;42.00
3134;DHT22;1577;49.912;10.924;2023-06-26T09:24:44;41.60;43.30
3134;DHT22;1577;49.912;10.924;2023-06-26T09:27:11;40.90;41.10
3134;DHT22;1577;49.912;10.924;2023-06-26T09:29:36;40.20;42.50
3134;DHT22;1577;49.912;10.924;2023-06-26T09:32:03;40.10;42.70
3134;DHT22;1577;49.912;10.924;2023-06-26T09:34:32;39.90;42.30
3134;DHT22;1577;49.912;10.924;2023-06-26T09:36:59;40.00;43.10
3134;DHT22;1577;49.912;10.924;2023-06-26T09:39:30;40.40;42.00
3134;DHT22;1577;49.912;10.924;2023-06-26T09:41:56;40.40;42.60
3134;DHT22;1577;49.912;10.924;2023-06-26T09:44:23;40.30;42.40
3134;DHT22;1577;49.912;10.924;2023-06-26T09:46:48;40.00;42.50
3134;DHT22;1577;49.912;10.924;2023-06-26T09:49:14;39.80;43.00
3134;DHT22;1577;49.912;10.924;2023-06-26T09:51:41;39.70;43.30
3134;DHT22;1577;49.912;10.924;2023-06-26T09:54:08;39.80;42.70
3134;DHT22;1577;49.912;10.924;2023-06-26T09:56:34;39.50;42.10
3134;DHT22;1577;49.912;10.924;2023-06-26T09:59:02;39.20;42.90
3134;DHT22;1577;49.912;10.924;2023-06-26T10:01:30;38.90;43.50
3134;DHT22;1577;49.912;10.924;2023-06-26T10:03:56;38.80;44.60
3134;DHT22;1577;49.912;10.924;2023-06-26T10:06:35;38.50;45.20
3134;DHT22;1577;49.912;10.924;2023-06-26T10:09:02;38.50;44.80
3134;DHT22;1577;49.912;10.924;2023-06-26T10:11:41;38.40;42.90
3134;DHT22;1577;49.912;10.924;2023-06-26T10:14:09;37.80;42.70
3134;DHT22;1577;49.912;10.924;2023-06-26T10:16:37;37.30;43.40
3134;DHT22;1577;49.912;10.924;2023-06-26T10:19:06;36.80;44.80
3134;DHT22;1577;49.912;10.924;2023-06-26T10:21:34;36.60;46.10
3134;DHT22;1577;49.912;10.924;2023-06-26T10:24:00;36.10;46.20
3134;DHT22;1577;49.912;10.924;2023-06-26T10:26:28;35.80;45.70
3134;DHT22;1577;49.912;10.924;2023-06-26T10:28:55;35.20;46.10
3134;DHT22;1577;49.912;10.924;2023-06-26T10:31:24;34.90;46.90
3134;DHT22;1577;49.912;10.924;2023-06-26T10:33:52;34.80;47.30
3134;DHT22;1577;49.912;10.924;2023-06-26T10:36:20;34.40;47.00
3134;DHT22;1577;49.912;10.924;2023-06-26T10:38:53;34.20;48.60
3134;DHT22;1577;49.912;10.924;2023-06-26T10:41:20;34.10;48.70
3134;DHT22;1577;49.912;10.924;2023-06-26T10:43:49;33.90;45.10
3134;DHT22;1577;49.912;10.924;2023-06-26T10:46:15;33.70;47.40
3134;DHT22;1577;49.912;10.924;2023-06-26T10:48:57;33.60;45.20
3134;DHT22;1577;49.912;10.924;2023-06-26T10:51:24;33.40;46.30
3134;DHT22;1577;49.912;10.924;2023-06-26T10:53:54;33.40;45.20
3134;DHT22;1577;49.912;10.924;2023-06-26T10:56:20;33.30;47.00
3134;DHT22;1577;49.912;10.924;2023-06-26T10:58:45;33.30;45.50
3134;DHT22;1577;49.912;10.924;2023-06-26T11:01:19;33.30;45.40
3134;DHT22;1577;49.912;10.924;2023-06-26T11:06:28;33.20;46.80
3134;DHT22;1577;49.912;10.924;2023-06-26T11:09:00;33.10;45.80
3134;DHT22;1577;49.912;10.924;2023-06-26T11:14:23;32.90;48.10
3134;DHT22;1577;49.912;10.924;2023-06-26T11:16:50;32.90;47.00
3134;DHT22;1577;49.912;10.924;2023-06-26T11:19:18;32.80;46.60
3134;DHT22;1577;49.912;10.924;2023-06-26T11:21:43;32.80;47.00
3134;DHT22;1577;49.912;10.924;2023-06-26T11:24:10;32.80;48.80
3134;DHT22;1577;49.912;10.924;2023-06-26T11:26:40;32.80;47.10
3134;DHT22;1577;49.912;10.924;2023-06-26T11:29:06;32.80;47.00
3134;DHT22;1577;49.912;10.924;2023-06-26T11:31:34;32.70;47.00
3134;DHT22;1577;49.912;10.924;2023-06-26T11:34:01;32.70;46.80
3134;DHT22;1577;49.912;10.924;2023-06-26T11:36:28;32.70;46.70
3134;DHT22;1577;49.912;10.924;2023-06-26T11:38:58;32.80;45.90
3134;DHT22;1577;49.912;10.924;2023-06-26T11:41:26;32.80;48.30
3134;DHT22;1577;49.912;10.924;2023-06-26T11:43:52;32.80;46.80
3134;DHT22;1577;49.912;10.924;2023-06-26T11:46:20;32.80;46.50
3134;DHT22;1577;49.912;10.924;2023-06-26T11:48:46;32.70;47.60
3134;DHT22;1577;49.912;10.924;2023-06-26T11:51:15;32.70;46.70
3134;DHT22;1577;49.912;10.924;2023-06-26T11:53:45;32.70;48.20
3134;DHT22;1577;49.912;10.924;2023-06-26T11:56:12;32.60;48.60
3134;DHT22;1577;49.912;10.924;2023-06-26T11:59:07;32.50;46.70
3134;DHT22;1577;49.912;10.924;2023-06-26T12:01:42;32.60;49.90
3134;DHT22;1577;49.912;10.924;2023-06-26T12:04:11;32.50;48.00
3134;DHT22;1577;49.912;10.924;2023-06-26T12:06:38;32.50;49.10
3134;DHT22;1577;49.912;10.924;2023-06-26T12:09:09;32.50;47.50
3134;DHT22;1577;49.912;10.924;2023-06-26T12:11:38;32.50;50.70
3134;DHT22;1577;49.912;10.924;2023-06-26T12:14:05;32.50;49.00
3134;DHT22;1577;49.912;10.924;2023-06-26T12:16:33;32.50;48.50
3134;DHT22;1577;49.912;10.924;2023-06-26T12:19:08;32.50;48.40
3134;DHT22;1577;49.912;10.924;2023-06-26T12:24:00;32.50;49.70
3134;DHT22;1577;49.912;10.924;2023-06-26T12:26:27;32.50;49.20
3134;DHT22;1577;49.912;10.924;2023-06-26T12:28:53;32.60;49.90
3134;DHT22;1577;49.912;10.924;2023-06-26T12:31:21;32.60;48.50
3134;DHT22;1577;49.912;10.924;2023-06-26T12:33:47;32.60;48.40
3134;DHT22;1577;49.912;10.924;2023-06-26T12:36:14;32.60;47.60
3134;DHT22;1577;49.912;10.924;2023-06-26T12:38:45;32.60;50.40
3134;DHT22;1577;49.912;10.924;2023-06-26T12:41:14;32.60;50.10
3134;DHT22;1577;49.912;10.924;2023-06-26T12:43:41;32.60;49.60
3134;DHT22;1577;49.912;10.924;2023-06-26T12:46:07;32.50;49.40
3134;DHT22;1577;49.912;10.924;2023-06-26T12:48:42;32.50;50.20
3134;DHT22;1577;49.912;10.924;2023-06-26T12:51:16;32.60;50.30
3134;DHT22;1577;49.912;10.924;2023-06-26T12:53:43;32.60;51.10
3134;DHT22;1577;49.912;10.924;2023-06-26T12:56:09;32.60;49.80
3134;DHT22;1577;49.912;10.924;2023-06-26T12:58:36;32.60;49.00
3134;DHT22;1577;49.912;10.924;2023-06-26T13:01:04;32.70;51.00
3134;DHT22;1577;49.912;10.924;2023-06-26T13:03:30;32.70;50.00
3134;DHT22;1577;49.912;10.924;2023-06-26T13:05:55;32.70;50.40
3134;DHT22;1577;49.912;10.924;2023-06-26T13:08:21;32.70;50.40
3134;DHT22;1577;49.912;10.924;2023-06-26T13:10:47;32.80;50.40
3134;DHT22;1577;49.912;10.924;2023-06-26T13:13:12;32.80;51.20
3134;DHT22;1577;49.912;10.924;2023-06-26T13:15:38;32.80;50.20
3134;DHT22;1577;49.912;10.924;2023-06-26T13:18:03;32.90;51.40
3134;DHT22;1577;49.912;10.924;2023-06-26T13:20:29;32.80;50.20
3134;DHT22;1577;49.912;10.924;2023-06-26T13:22:55;32.80;51.40
3134;DHT22;1577;49.912;10.924;2023-06-26T13:25:21;32.70;50.20
3134;DHT22;1577;49.912;10.924;2023-06-26T13:27:47;32.70;51.10
3134;DHT22;1577;49.912;10.924;2023-06-26T13:30:14;32.70;51.40
3134;DHT22;1577;49.912;10.924;2023-06-26T13:32:40;32.80;52.80
3134;DHT22;1577;49.912;10.924;2023-06-26T13:35:06;32.80;52.10
3134;DHT22;1577;49.912;10.924;2023-06-26T13:37:32;32.90;51.60
3134;DHT22;1577;49.912;10.924;2023-06-26T13:39:59;32.90;50.20
3134;DHT22;1577;49.912;10.924;2023-06-26T13:42:26;32.80;50.80
3134;DHT22;1577;49.912;10.924;2023-06-26T13:44:55;32.80;54.00
3134;DHT22;1577;49.912;10.924;2023-06-26T13:47:20;32.70;51.70
3134;DHT22;1577;49.912;10.924;2023-06-26T13:49:50;32.80;52.10
3134;DHT22;1577;49.912;10.924;2023-06-26T13:52:15;32.90;53.60
3134;DHT22;1577;49.912;10.924;2023-06-26T13:54:41;33.00;54.00
3134;DHT22;1577;49.912;10.924;2023-06-26T13:57:07;33.00;52.70
3134;DHT22;1577;49.912;10.924;2023-06-26T13:59:33;32.90;52.90
3134;DHT22;1577;49.912;10.924;2023-06-26T14:01:59;32.90;53.20
3134;DHT22;1577;49.912;10.924;2023-06-26T14:04:26;32.90;52.70
3134;DHT22;1577;49.912;10.924;2023-06-26T14:06:52;32.90;52.90
3134;DHT22;1577;49.912;10.924;2023-06-26T14:09:18;33.00;53.90
3134;DHT22;1577;49.912;10.924;2023-06-26T14:11:44;33.00;53.60
3134;DHT22;1577;49.912;10.924;2023-06-26T14:14:09;32.90;54.20
3134;DHT22;1577;49.912;10.924;2023-06-26T14:16:35;32.90;54.10
3134;DHT22;1577;49.912;10.924;2023-06-26T14:19:01;32.90;55.10
3134;DHT22;1577;49.912;10.924;2023-06-26T14:21:27;32.80;53.80
3134;DHT22;1577;49.912;10.924;2023-06-26T14:23:54;32.70;54.50
3134;DHT22;1577;49.912;10.924;2023-06-26T14:26:20;32.60;55.40
3134;DHT22;1577;49.912;10.924;2023-06-26T14:28:46;32.50;55.40
3134;DHT22;1577;49.912;10.924;2023-06-26T14:31:12;32.50;55.70
3134;DHT22;1577;49.912;10.924;2023-06-26T14:33:37;32.50;55.60
3134;DHT22;1577;49.912;10.924;2023-06-26T14:36:03;32.50;56.50
3134;DHT22;1577;49.912;10.924;2023-06-26T14:38:28;32.40;55.70
3134;DHT22;1577;49.912;10.924;2023-06-26T14:40:54;32.40;56.00
3134;DHT22;1577;49.912;10.924;2023-06-26T14:43:20;32.30;56.20
3134;DHT22;1577;49.912;10.924;2023-06-26T14:45:46;32.10;56.90
3134;DHT22;1577;49.912;10.924;2023-06-26T14:48:12;32.20;57.30
3134;DHT22;1577;49.912;10.924;2023-06-26T14:50:38;32.00;56.70
3134;DHT22;1577;49.912;10.924;2023-06-26T14:53:04;31.90;57.40
3134;DHT22;1577;49.912;10.924;2023-06-26T14:55:33;31.90;56.70
3134;DHT22;1577;49.912;10.924;2023-06-26T14:57:58;31.90;56.60
3134;DHT22;1577;49.912;10.924;2023-06-26T15:00:24;31.80;57.60
3134;DHT22;1577;49.912;10.924;2023-06-26T15:02:51;31.70;57.50
3134;DHT22;1577;49.912;10.924;2023-06-26T15:05:19;31.60;57.20
3134;DHT22;1577;49.912;10.924;2023-06-26T15:07:45;31.70;57.40
3134;DHT22;1577;49.912;10.924;2023-06-26T15:10:10;31.60;57.60
3134;DHT22;1577;49.912;10.924;2023-06-26T15:12:36;31.60;58.50
3134;DHT22;1577;49.912;10.924;2023-06-26T15:15:02;31.70;58.80
3134;DHT22;1577;49.912;10.924;2023-06-26T15:17:28;31.70;59.00
3134;DHT22;1577;49.912;10.924;2023-06-26T15:19:54;31.80;58.60
3134;DHT22;1577;49.912;10.924;2023-06-26T15:22:22;31.70;58.00
3134;DHT22;1577;49.912;10.924;2023-06-26T15:24:50;31.60;58.50
3134;DHT22;1577;49.912;10.924;2023-06-26T15:27:16;31.60;58.70
3134;DHT22;1577;49.912;10.924;2023-06-26T15:29:41;31.40;59.10
3134;DHT22;1577;49.912;10.924;2023-06-26T15:32:07;31.30;58.60
3134;DHT22;1577;49.912;10.924;2023-06-26T15:34:33;31.30;58.70
3134;DHT22;1577;49.912;10.924;2023-06-26T15:36:58;31.30;59.10
3134;DHT22;1577;49.912;10.924;2023-06-26T15:39:24;31.30;58.50
3134;DHT22;1577;49.912;10.924;2023-06-26T15:41:50;31.20;58.80
3134;DHT22;1577;49.912;10.924;2023-06-26T15:44:15;31.20;58.70
3134;DHT22;1577;49.912;10.924;2023-06-26T15:46:44;31.20;58.70
3134;DHT22;1577;49.912;10.924;2023-06-26T15:49:09;31.10;58.00
3134;DHT22;1577;49.912;10.924;2023-06-26T15:51:35;31.10;57.60
3134;DHT22;1577;49.912;10.924;2023-06-26T15:54:03;31.10;57.60
3134;DHT22;1577;49.912;10.924;2023-06-26T15:56:29;31.20;58.00